Time;durP1;ratioP1;P1;durP2;ratioP2;P2;SDS_P1;SDS_P2;PMS_P1;PMS_P2;Temp;Humidity;BMP_temperature;BMP_pressure;BME280_temperature;BME280_humidity;BME280_pressure;Samples;Min_cycle;Max_cycle;Signal;HPM_P1;HPM_P2
2024/01/29 00:01:28;;;;;;;6.78;3.50;;;5.40;99.90;;;;;;5122817;27;20043;-73
2024/01/29 00:03:54;;;;;;;6.57;3.53;;;5.40;99.90;;;;;;5111653;27;20035;-73
2024/01/29 00:06:20;;;;;;;6.63;3.45;;;5.30;99.90;;;;;;5105539;28;20028;-73
2024/01/29 00:08:46;;;;;;;8.30;3.50;;;5.30;99.90;;;;;;5122633;27;20039;-73
2024/01/29 00:11:12;;;;;;;8.27;3.40;;;5.30;99.90;;;;;;5119317;27;20047;-73
2024/01/29 00:13:37;;;;;;;8.02;3.70;;;5.30;99.90;;;;;;5113049;27;20039;-72
2024/01/29 00:16:03;;;;;;;7.95;3.40;;;5.30;99.90;;;;;;5113920;27;20043;-73
2024/01/29 00:18:29;;;;;;;7.75;3.20;;;5.30;99.90;;;;;;5111507;27;20035;-73
2024/01/29 00:20:57;;;;;;;6.90;3.40;;;5.30;99.90;;;;;;5117894;27;20039;-73
2024/01/29 00:23:23;;;;;;;7.10;3.20;;;5.30;99.90;;;;;;5101166;27;20040;-72
2024/01/29 00:25:49;;;;;;;6.43;3.50;;;5.30;99.90;;;;;;5109099;27;20031;-73
2024/01/29 00:28:14;;;;;;;7.28;3.10;;;5.30;99.90;;;;;;5122852;27;20046;-73
2024/01/29 00:30:40;;;;;;;6.13;2.97;;;5.30;99.90;;;;;;5110818;27;20043;-73
2024/01/29 00:33:06;;;;;;;6.20;3.05;;;5.40;99.90;;;;;;5088533;28;20039;-74
2024/01/29 00:35:31;;;;;;;6.88;3.38;;;5.40;99.90;;;;;;5122200;27;20092;-72
2024/01/29 00:37:57;;;;;;;6.38;3.35;;;5.40;99.90;;;;;;5096791;27;20031;-74
2024/01/29 00:40:25;;;;;;;6.30;3.22;;;5.40;99.90;;;;;;5118471;27;20036;-73
2024/01/29 00:42:50;;;;;;;7.13;3.22;;;5.40;99.90;;;;;;5112696;27;20039;-72
2024/01/29 00:45:16;;;;;;;6.85;3.30;;;5.40;99.90;;;;;;5110759;28;20042;-73
2024/01/29 00:47:42;;;;;;;7.43;3.30;;;5.50;99.90;;;;;;5115043;27;20038;-73
2024/01/29 00:50:08;;;;;;;6.72;3.10;;;5.50;99.90;;;;;;5122385;27;20077;-72
2024/01/29 00:52:34;;;;;;;6.47;3.17;;;5.50;99.90;;;;;;5125169;27;20038;-73
2024/01/29 00:55:00;;;;;;;6.40;3.22;;;5.40;99.90;;;;;;5114598;27;20503;-72
2024/01/29 00:57:27;;;;;;;6.93;3.38;;;5.40;99.90;;;;;;5112367;27;20070;-73
2024/01/29 00:59:55;;;;;;;7.30;3.35;;;5.40;99.90;;;;;;5118292;27;20052;-72
2024/01/29 01:02:21;;;;;;;7.78;3.45;;;5.40;99.90;;;;;;5102928;28;20110;-73
2024/01/29 01:04:46;;;;;;;6.20;3.33;;;5.40;99.90;;;;;;5096704;28;20119;-73
2024/01/29 01:07:12;;;;;;;7.43;3.47;;;5.40;99.90;;;;;;5118585;27;20039;-73
2024/01/29 01:09:38;;;;;;;6.88;3.40;;;5.40;99.90;;;;;;5113984;27;20039;-73
2024/01/29 01:12:04;;;;;;;7.78;3.35;;;5.30;99.90;;;;;;5100633;28;20039;-72
2024/01/29 01:14:29;;;;;;;6.70;3.17;;;5.40;99.90;;;;;;5120132;27;20042;-73
2024/01/29 01:16:55;;;;;;;8.18;3.55;;;5.30;99.90;;;;;;5099101;27;20380;-73
2024/01/29 01:19:21;;;;;;;6.25;3.20;;;5.30;99.90;;;;;;5103288;28;20110;-72
2024/01/29 01:21:48;;;;;;;7.63;3.30;;;5.30;99.90;;;;;;5112069;27;20027;-73
2024/01/29 01:24:13;;;;;;;7.50;3.50;;;5.30;99.90;;;;;;5092220;28;20042;-72
2024/01/29 01:26:39;;;;;;;6.95;3.33;;;5.30;99.90;;;;;;5111400;27;20034;-73
2024/01/29 01:29:05;;;;;;;7.03;3.47;;;5.30;99.90;;;;;;5084967;28;20140;-72
2024/01/29 01:31:31;;;;;;;7.22;3.60;;;5.30;99.90;;;;;;5118466;27;20095;-73
2024/01/29 01:33:57;;;;;;;8.35;3.67;;;5.30;99.90;;;;;;5112649;27;20087;-75
2024/01/29 01:36:22;;;;;;;7.75;3.50;;;5.20;99.90;;;;;;5109083;27;20039;-73
2024/01/29 01:38:48;;;;;;;7.15;3.65;;;5.20;99.90;;;;;;5106786;28;20035;-74
2024/01/29 01:41:14;;;;;;;7.20;3.60;;;5.20;99.90;;;;;;5111270;28;20065;-74
2024/01/29 01:43:40;;;;;;;6.10;3.00;;;5.30;99.90;;;;;;5117177;27;20085;-74
2024/01/29 01:46:06;;;;;;;7.68;3.60;;;5.30;99.90;;;;;;5104784;28;20040;-73
2024/01/29 01:48:33;;;;;;;8.00;3.50;;;5.30;99.90;;;;;;5110862;27;20039;-74
2024/01/29 01:51:00;;;;;;;7.80;3.63;;;5.40;99.90;;;;;;5127829;27;20452;-73
2024/01/29 01:53:29;;;;;;;6.68;3.55;;;5.40;99.90;;;;;;5101650;28;20111;-74
2024/01/29 01:55:55;;;;;;;9.52;3.65;;;5.30;99.90;;;;;;5117865;27;20039;-73
2024/01/29 01:58:24;;;;;;;7.38;3.60;;;5.30;99.90;;;;;;5119913;27;20035;-74
2024/01/29 02:00:50;;;;;;;6.43;3.50;;;5.30;99.90;;;;;;5113902;27;20046;-69
2024/01/29 02:03:16;;;;;;;8.88;3.50;;;5.30;99.90;;;;;;5102950;28;20044;-69
2024/01/29 02:05:42;;;;;;;7.88;3.65;;;5.20;99.90;;;;;;5096929;28;20031;-69
2024/01/29 02:08:08;;;;;;;7.35;3.60;;;5.10;99.90;;;;;;5126889;27;20437;-70
2024/01/29 02:10:35;;;;;;;7.47;3.50;;;5.00;99.90;;;;;;5107385;28;20027;-69
2024/01/29 02:13:01;;;;;;;7.72;3.53;;;5.10;99.90;;;;;;5124411;27;20383;-70
2024/01/29 02:15:26;;;;;;;6.57;3.40;;;5.00;99.90;;;;;;5099243;28;20040;-70
2024/01/29 02:17:52;;;;;;;8.07;3.97;;;5.00;99.90;;;;;;5121005;28;20038;-70
2024/01/29 02:20:19;;;;;;;6.82;3.92;;;5.00;99.90;;;;;;5093753;28;20123;-69
2024/01/29 02:22:45;;;;;;;7.72;3.60;;;5.00;99.90;;;;;;5108734;28;20039;-69
2024/01/29 02:25:12;;;;;;;7.00;3.60;;;4.90;99.90;;;;;;5120286;28;20172;-69
2024/01/29 02:27:38;;;;;;;7.65;3.70;;;4.90;99.90;;;;;;5118726;28;20506;-70
2024/01/29 02:30:05;;;;;;;8.18;3.67;;;4.80;99.90;;;;;;5122165;28;20031;-69
2024/01/29 02:32:31;;;;;;;7.78;4.10;;;4.90;99.90;;;;;;5116940;28;20067;-69
2024/01/29 02:34:57;;;;;;;7.78;3.60;;;4.80;99.90;;;;;;5107423;28;20039;-69
2024/01/29 02:37:22;;;;;;;8.48;3.70;;;4.80;99.90;;;;;;5123209;28;20058;-69
2024/01/29 02:39:51;;;;;;;8.48;4.25;;;4.80;99.90;;;;;;5104657;28;20076;-69
2024/01/29 02:42:18;;;;;;;7.50;3.92;;;4.70;99.90;;;;;;5116657;28;20035;-70
2024/01/29 02:44:45;;;;;;;8.57;4.13;;;4.70;99.90;;;;;;5121333;28;20046;-70
2024/01/29 02:47:10;;;;;;;7.05;4.32;;;4.60;99.90;;;;;;5117012;28;20039;-70
2024/01/29 02:49:36;;;;;;;7.90;3.90;;;4.60;99.90;;;;;;5126093;28;20050;-70
2024/01/29 02:52:04;;;;;;;9.20;3.80;;;4.70;99.90;;;;;;5102368;28;20043;-69
2024/01/29 02:54:29;;;;;;;7.53;3.90;;;4.50;99.90;;;;;;5112282;28;20043;-70
2024/01/29 02:56:55;;;;;;;9.30;4.10;;;4.50;99.90;;;;;;5110787;28;20122;-69
2024/01/29 02:59:21;;;;;;;6.90;3.63;;;4.80;99.90;;;;;;5105828;28;20147;-71
2024/01/29 03:01:47;;;;;;;8.18;3.85;;;4.50;99.90;;;;;;5103788;28;20446;-70
2024/01/29 03:04:12;;;;;;;8.70;3.88;;;4.60;99.90;;;;;;5122027;28;20065;-70
2024/01/29 03:06:38;;;;;;;8.27;4.07;;;4.60;99.90;;;;;;5101327;28;20074;-70
2024/01/29 03:09:04;;;;;;;9.25;4.18;;;4.60;99.90;;;;;;5112995;28;20410;-69
2024/01/29 03:11:30;;;;;;;8.35;3.70;;;4.70;99.90;;;;;;5089693;28;20061;-74
2024/01/29 03:13:57;;;;;;;7.30;3.90;;;4.70;99.90;;;;;;5092699;28;20036;-74
2024/01/29 03:16:23;;;;;;;7.20;3.70;;;4.70;99.90;;;;;;5097640;28;20066;-74
2024/01/29 03:18:48;;;;;;;7.15;3.83;;;4.80;99.90;;;;;;5119608;27;20513;-74
2024/01/29 03:21:14;;;;;;;8.88;4.25;;;4.80;99.90;;;;;;5114481;27;20380;-74
2024/01/29 03:23:40;;;;;;;7.60;4.10;;;4.80;99.90;;;;;;5089899;28;20119;-74
2024/01/29 03:26:05;;;;;;;9.73;4.10;;;4.80;99.90;;;;;;5107786;28;20044;-73
2024/01/29 03:28:31;;;;;;;8.38;4.22;;;4.80;99.90;;;;;;5110506;27;20045;-73
2024/01/29 03:30:57;;;;;;;7.07;3.70;;;4.80;99.90;;;;;;5091708;28;20400;-74
2024/01/29 03:33:22;;;;;;;7.78;4.00;;;4.80;99.90;;;;;;5109631;28;20040;-74
2024/01/29 03:35:48;;;;;;;8.05;4.13;;;4.80;99.90;;;;;;5102253;27;20499;-74
2024/01/29 03:38:14;;;;;;;8.75;4.18;;;4.80;99.90;;;;;;5105873;27;20047;-74
2024/01/29 03:40:39;;;;;;;7.60;4.40;;;4.70;99.90;;;;;;5122031;27;20403;-74
2024/01/29 03:43:05;;;;;;;7.47;4.20;;;4.70;99.90;;;;;;5118941;27;20458;-73
2024/01/29 03:45:31;;;;;;;7.95;4.15;;;4.60;99.90;;;;;;5116428;27;20080;-74
2024/01/29 03:47:57;;;;;;;7.93;4.07;;;4.60;99.90;;;;;;5111467;28;20445;-74
2024/01/29 03:50:22;;;;;;;9.20;4.30;;;4.60;99.90;;;;;;5122493;27;20035;-73
2024/01/29 03:52:50;;;;;;;7.22;4.13;;;4.60;99.90;;;;;;5095035;27;20035;-74
2024/01/29 03:55:16;;;;;;;8.30;4.18;;;4.50;99.90;;;;;;5083261;28;20051;-74
2024/01/29 03:57:42;;;;;;;8.85;4.25;;;4.50;99.90;;;;;;5106937;28;20036;-74
2024/01/29 04:00:09;;;;;;;8.75;4.40;;;4.50;99.90;;;;;;5116140;27;20085;-74
2024/01/29 04:02:34;;;;;;;7.90;4.18;;;4.50;99.90;;;;;;5119074;27;20040;-74
2024/01/29 04:05:00;;;;;;;8.68;4.35;;;4.50;99.90;;;;;;5124061;27;20050;-74
2024/01/29 04:07:27;;;;;;;8.13;4.03;;;4.50;99.90;;;;;;5122383;27;20043;-74
2024/01/29 04:09:53;;;;;;;8.23;4.50;;;4.50;99.90;;;;;;5113381;27;20122;-74
2024/01/29 04:12:19;;;;;;;8.02;4.25;;;4.60;99.90;;;;;;5111985;27;20187;-74
2024/01/29 04:14:45;;;;;;;8.48;4.20;;;4.60;99.90;;;;;;5121784;27;20407;-74
2024/01/29 04:17:12;;;;;;;8.23;4.38;;;4.60;99.90;;;;;;5126915;27;20093;-74
2024/01/29 04:19:41;;;;;;;9.18;4.10;;;4.60;99.90;;;;;;5108455;28;20027;-74
2024/01/29 04:22:07;;;;;;;7.75;4.25;;;4.60;99.90;;;;;;5112683;27;20515;-73
2024/01/29 04:24:32;;;;;;;7.70;4.18;;;4.60;99.90;;;;;;5122778;27;20035;-73
2024/01/29 04:26:58;;;;;;;7.57;4.50;;;4.60;99.90;;;;;;5100807;28;20035;-74
2024/01/29 04:29:24;;;;;;;8.48;4.45;;;4.50;99.90;;;;;;5101671;28;20046;-74
2024/01/29 04:31:49;;;;;;;7.10;3.83;;;4.50;99.90;;;;;;5120957;27;20043;-74
2024/01/29 04:34:15;;;;;;;7.75;4.05;;;4.40;99.90;;;;;;5118565;27;20050;-74
2024/01/29 04:36:41;;;;;;;8.73;4.40;;;4.40;99.90;;;;;;5124240;27;20038;-74
2024/01/29 04:39:07;;;;;;;6.90;4.38;;;4.40;99.90;;;;;;5119963;27;20073;-74
2024/01/29 04:41:33;;;;;;;8.50;4.30;;;4.50;99.90;;;;;;5112201;28;20093;-73
2024/01/29 04:43:58;;;;;;;7.75;4.22;;;4.40;99.90;;;;;;5127810;27;20471;-74
2024/01/29 04:46:24;;;;;;;8.38;4.50;;;4.30;99.90;;;;;;5115446;27;20071;-74
2024/01/29 04:48:50;;;;;;;9.05;4.47;;;4.30;99.90;;;;;;5109090;27;20077;-73
2024/01/29 04:51:16;;;;;;;8.15;4.53;;;4.30;99.90;;;;;;5114898;27;20100;-74
2024/01/29 04:53:41;;;;;;;7.88;4.50;;;4.40;99.90;;;;;;5114297;27;20044;-74
2024/01/29 04:56:07;;;;;;;8.35;4.30;;;4.30;99.90;;;;;;5116708;27;20483;-73
2024/01/29 04:58:33;;;;;;;8.95;4.45;;;4.30;99.90;;;;;;5121067;27;20040;-74
2024/01/29 05:00:59;;;;;;;7.70;4.50;;;4.20;99.90;;;;;;5113254;27;20052;-74
2024/01/29 05:03:26;;;;;;;7.85;4.28;;;4.20;99.90;;;;;;5118664;27;20035;-74
2024/01/29 05:05:52;;;;;;;7.55;4.53;;;4.20;99.90;;;;;;5123066;27;20114;-74
2024/01/29 05:08:18;;;;;;;9.68;4.40;;;4.20;99.90;;;;;;5100953;27;20046;-74
2024/01/29 05:10:45;;;;;;;7.43;4.72;;;4.20;99.90;;;;;;5111012;27;20035;-74
2024/01/29 05:13:11;;;;;;;8.10;4.57;;;4.20;99.90;;;;;;5108240;27;20070;-73
2024/01/29 05:15:37;;;;;;;9.00;4.85;;;4.10;99.90;;;;;;5102572;28;20042;-74
2024/01/29 05:18:03;;;;;;;7.53;4.40;;;4.10;99.90;;;;;;5116852;27;20491;-73
2024/01/29 05:20:32;;;;;;;7.57;4.45;;;4.10;99.90;;;;;;5114850;27;20514;-74
2024/01/29 05:22:57;;;;;;;9.35;4.70;;;4.10;99.90;;;;;;5115327;27;20500;-74
2024/01/29 05:25:23;;;;;;;8.10;4.60;;;4.00;99.90;;;;;;5105248;27;20038;-74
2024/01/29 05:27:49;;;;;;;9.43;4.80;;;4.10;99.90;;;;;;5105826;27;20039;-73
2024/01/29 05:30:15;;;;;;;8.75;4.88;;;4.00;99.90;;;;;;5127557;27;20039;-74
2024/01/29 05:32:42;;;;;;;8.93;4.70;;;3.90;99.90;;;;;;5117602;27;20508;-73
2024/01/29 05:35:09;;;;;;;9.20;4.63;;;3.90;99.90;;;;;;5098439;27;20476;-73
2024/01/29 05:37:35;;;;;;;9.60;4.75;;;3.90;99.90;;;;;;5120457;27;20040;-73
2024/01/29 05:40:01;;;;;;;8.18;4.65;;;3.90;99.90;;;;;;5116091;27;20034;-74
2024/01/29 05:42:27;;;;;;;10.18;4.93;;;3.90;99.90;;;;;;5143454;27;20514;-73
2024/01/29 05:44:53;;;;;;;8.93;4.95;;;4.00;99.90;;;;;;5118605;27;20039;-73
2024/01/29 05:47:18;;;;;;;8.93;4.88;;;4.00;99.90;;;;;;5119892;27;20047;-74
2024/01/29 05:49:44;;;;;;;7.45;4.88;;;4.00;99.90;;;;;;5120094;27;20044;-74
2024/01/29 05:52:10;;;;;;;8.23;4.80;;;4.20;99.90;;;;;;5104913;27;20047;-73
2024/01/29 05:54:36;;;;;;;9.45;4.47;;;4.00;99.90;;;;;;5114167;27;20043;-73
2024/01/29 05:57:02;;;;;;;7.72;4.80;;;4.10;99.90;;;;;;5119027;27;20046;-73
2024/01/29 05:59:27;;;;;;;7.82;4.90;;;4.10;99.90;;;;;;5119355;27;20043;-72
2024/01/29 06:01:53;;;;;;;8.82;4.78;;;4.10;99.90;;;;;;5098002;27;20511;-74
2024/01/29 06:04:19;;;;;;;9.15;5.30;;;4.10;99.90;;;;;;5124249;27;20117;-73
2024/01/29 06:06:45;;;;;;;8.10;4.90;;;4.00;99.90;;;;;;5084246;27;20491;-73
2024/01/29 06:09:10;;;;;;;8.10;5.15;;;3.90;99.90;;;;;;5107438;28;20043;-73
2024/01/29 06:11:36;;;;;;;9.40;5.10;;;4.00;99.90;;;;;;5101477;28;20514;-73
2024/01/29 06:14:02;;;;;;;7.65;4.85;;;3.90;99.90;;;;;;5112098;27;20479;-73
2024/01/29 06:16:29;;;;;;;9.80;5.00;;;3.90;99.90;;;;;;5095790;28;20039;-73
2024/01/29 06:18:57;;;;;;;8.70;5.22;;;3.90;99.90;;;;;;5100961;28;20499;-73
2024/01/29 06:21:23;;;;;;;9.68;5.03;;;3.90;99.90;;;;;;5104355;28;20035;-73
2024/01/29 06:23:49;;;;;;;8.05;4.85;;;3.90;99.90;;;;;;5118914;27;20064;-74
2024/01/29 06:26:15;;;;;;;9.32;4.93;;;4.10;99.90;;;;;;5120267;27;20044;-74
2024/01/29 06:28:44;;;;;;;11.07;5.22;;;4.00;99.90;;;;;;5115446;27;20045;-74
2024/01/29 06:31:10;;;;;;;8.30;5.00;;;4.00;99.90;;;;;;5121512;27;20031;-73
2024/01/29 06:33:38;;;;;;;8.73;4.78;;;4.00;99.90;;;;;;5124110;27;20114;-74
2024/01/29 06:36:07;;;;;;;8.45;4.85;;;4.00;99.90;;;;;;5109739;28;20495;-73
2024/01/29 06:38:33;;;;;;;9.48;4.82;;;4.00;99.90;;;;;;5092911;28;20383;-73
2024/01/29 06:40:59;;;;;;;7.50;4.80;;;4.10;99.90;;;;;;5104077;28;20044;-70
2024/01/29 06:43:26;;;;;;;9.68;5.00;;;4.20;99.90;;;;;;5092630;28;20035;-70
2024/01/29 06:45:51;;;;;;;7.72;4.90;;;4.00;99.90;;;;;;5096681;28;20050;-70
2024/01/29 06:48:17;;;;;;;7.80;4.75;;;4.00;99.90;;;;;;5127973;27;20077;-70
2024/01/29 06:50:44;;;;;;;11.00;5.43;;;4.10;99.90;;;;;;5104994;27;20035;-70
2024/01/29 06:53:10;;;;;;;8.93;5.15;;;4.10;99.90;;;;;;5115344;27;20027;-70
2024/01/29 06:55:36;;;;;;;9.27;5.40;;;4.10;99.90;;;;;;5116105;27;20834;-70
2024/01/29 06:58:01;;;;;;;9.45;5.50;;;4.10;99.90;;;;;;5122906;27;20046;-70
2024/01/29 07:00:27;;;;;;;12.48;5.72;;;4.10;99.90;;;;;;5107377;27;20372;-70
2024/01/29 07:02:53;;;;;;;7.90;5.22;;;4.10;99.90;;;;;;5129190;27;20043;-70
2024/01/29 07:05:20;;;;;;;8.00;4.93;;;4.10;99.90;;;;;;5097095;28;20044;-70
2024/01/29 07:07:45;;;;;;;8.93;5.47;;;4.10;99.90;;;;;;5116189;27;20122;-70
2024/01/29 07:10:14;;;;;;;8.68;5.15;;;4.10;99.90;;;;;;5116154;27;20078;-69
2024/01/29 07:12:40;;;;;;;10.55;5.38;;;4.10;99.90;;;;;;5109334;28;20164;-70
2024/01/29 07:15:05;;;;;;;8.85;5.20;;;4.20;99.90;;;;;;5108264;27;20076;-70
2024/01/29 07:17:31;;;;;;;8.05;4.95;;;4.20;99.90;;;;;;5107949;27;20043;-69
2024/01/29 07:19:57;;;;;;;8.38;5.22;;;4.20;99.90;;;;;;5127324;27;20562;-69
2024/01/29 07:22:24;;;;;;;8.45;5.20;;;4.20;99.90;;;;;;5120957;27;20039;-70
2024/01/29 07:24:50;;;;;;;11.02;5.40;;;4.20;99.90;;;;;;5109762;27;20031;-70
2024/01/29 07:27:16;;;;;;;9.07;5.35;;;4.20;99.90;;;;;;5122889;27;20040;-70
2024/01/29 07:29:42;;;;;;;10.35;4.97;;;4.20;99.90;;;;;;5118740;27;20035;-70
2024/01/29 07:32:08;;;;;;;9.25;4.97;;;4.20;99.90;;;;;;5104373;27;20091;-70
2024/01/29 07:34:34;;;;;;;8.40;5.20;;;4.20;99.90;;;;;;5122244;27;20039;-70
2024/01/29 07:37:00;;;;;;;9.30;5.43;;;4.20;99.90;;;;;;5122197;27;20092;-70
2024/01/29 07:39:26;;;;;;;10.57;5.80;;;4.20;99.90;;;;;;5127537;27;20504;-70
2024/01/29 07:41:51;;;;;;;27.45;7.03;;;4.30;99.90;;;;;;5118421;27;20047;-70
2024/01/29 07:44:18;;;;;;;14.25;5.60;;;4.20;99.90;;;;;;5103391;27;20057;-70
2024/01/29 07:46:44;;;;;;;10.90;5.63;;;4.20;99.90;;;;;;5114702;27;20047;-70
2024/01/29 07:49:10;;;;;;;11.88;6.03;;;4.20;99.90;;;;;;5118492;27;20135;-70
2024/01/29 07:51:42;;;;;;;8.88;5.47;;;4.20;99.90;;;;;;5128204;27;20483;-75
2024/01/29 07:54:08;;;;;;;10.85;5.80;;;4.30;99.90;;;;;;5104722;27;20031;-74
2024/01/29 07:56:34;;;;;;;9.95;5.72;;;4.30;99.90;;;;;;5126866;27;20039;-76
2024/01/29 07:58:59;;;;;;;9.23;5.35;;;4.80;99.90;;;;;;5110863;28;20088;-77
2024/01/29 08:01:25;;;;;;;10.77;5.50;;;4.40;99.90;;;;;;5116261;27;20428;-76
2024/01/29 08:03:51;;;;;;;10.00;5.40;;;4.60;99.90;;;;;;5121703;27;20032;-76
2024/01/29 08:06:17;;;;;;;10.25;5.80;;;4.50;99.90;;;;;;5105180;27;20039;-75
2024/01/29 08:08:42;;;;;;;10.32;5.75;;;4.60;99.90;;;;;;5105021;27;20035;-76
2024/01/29 08:11:09;;;;;;;9.05;6.00;;;4.60;99.90;;;;;;5130219;27;20130;-76
2024/01/29 08:13:34;;;;;;;8.95;5.28;;;4.70;99.90;;;;;;5110043;27;20043;-76
2024/01/29 08:16:00;;;;;;;10.10;5.70;;;4.70;99.90;;;;;;5109783;27;20479;-75
2024/01/29 08:18:26;;;;;;;9.23;5.72;;;4.70;99.90;;;;;;5124143;27;20530;-76
2024/01/29 08:20:52;;;;;;;8.65;5.75;;;4.80;99.90;;;;;;5126768;27;20043;-76
2024/01/29 08:23:18;;;;;;;9.90;5.85;;;4.80;99.90;;;;;;5109503;27;20031;-75
2024/01/29 08:25:44;;;;;;;9.68;5.78;;;4.80;99.90;;;;;;5124648;27;20487;-76
2024/01/29 08:28:12;;;;;;;10.63;6.03;;;4.80;99.90;;;;;;5127887;27;20039;-75
2024/01/29 08:30:37;;;;;;;9.48;5.55;;;4.90;99.90;;;;;;5112696;27;20119;-73
2024/01/29 08:33:03;;;;;;;9.63;5.85;;;4.90;99.90;;;;;;5112046;27;20067;-75
2024/01/29 08:35:29;;;;;;;8.70;6.05;;;4.90;99.90;;;;;;5121587;27;20127;-74
2024/01/29 08:37:55;;;;;;;9.98;5.78;;;5.00;99.90;;;;;;5109920;27;20054;-73
2024/01/29 08:40:20;;;;;;;9.35;5.95;;;5.00;99.90;;;;;;5112751;27;20035;-74
2024/01/29 08:42:47;;;;;;;11.73;6.15;;;5.20;99.90;;;;;;5126647;27;20042;-74
2024/01/29 08:45:19;;;;;;;9.63;5.97;;;5.20;99.90;;;;;;5113718;27;20046;-75
2024/01/29 08:47:45;;;;;;;;;;;5.50;99.90;;;;;;5115168;27;20281;-75
2024/01/29 08:50:13;;;;;;;8.65;5.45;;;5.90;99.90;;;;;;5126068;27;19916;-75
2024/01/29 08:52:39;;;;;;;9.35;5.65;;;6.10;99.90;;;;;;5144270;27;20032;-74
2024/01/29 08:55:08;;;;;;;10.90;5.85;;;6.10;99.90;;;;;;5124693;27;20039;-75
2024/01/29 08:57:34;;;;;;;9.63;5.90;;;6.10;99.90;;;;;;5109658;27;20046;-74
2024/01/29 08:59:59;;;;;;;10.90;5.85;;;6.10;99.90;;;;;;5113615;27;20043;-75
2024/01/29 09:02:27;;;;;;;10.25;6.03;;;6.10;99.90;;;;;;5124052;27;20055;-74
2024/01/29 09:04:53;;;;;;;8.82;5.65;;;6.30;99.90;;;;;;5128096;27;20037;-74
2024/01/29 09:07:19;;;;;;;9.68;6.18;;;6.30;99.90;;;;;;5136622;27;20039;-75
2024/01/29 09:09:46;;;;;;;9.98;5.63;;;6.40;99.90;;;;;;5150868;27;20039;-76
2024/01/29 09:12:12;;;;;;;9.27;6.05;;;6.40;99.90;;;;;;5135745;27;20019;-73
2024/01/29 09:14:38;;;;;;;9.23;6.13;;;6.50;99.90;;;;;;5153100;27;20075;-73
2024/01/29 09:17:04;;;;;;;9.27;6.22;;;6.60;99.90;;;;;;5134949;27;20043;-73
2024/01/29 09:19:30;;;;;;;9.63;6.03;;;6.60;99.90;;;;;;5149320;27;20025;-74
2024/01/29 09:21:56;;;;;;;9.45;6.22;;;6.60;99.90;;;;;;5148104;27;20056;-77
2024/01/29 09:24:22;;;;;;;9.82;6.50;;;6.70;99.90;;;;;;5135365;27;20067;-76
2024/01/29 09:26:47;;;;;;;10.05;6.60;;;6.80;99.90;;;;;;5100048;28;20043;-76
2024/01/29 09:29:13;;;;;;;10.00;6.50;;;6.80;99.90;;;;;;5134095;27;20042;-76
2024/01/29 09:31:42;;;;;;;9.93;6.30;;;6.80;99.90;;;;;;5140793;27;20042;-76
2024/01/29 09:34:08;;;;;;;10.45;6.38;;;6.90;99.90;;;;;;5121477;27;20035;-76
2024/01/29 09:36:35;;;;;;;9.45;6.28;;;6.90;99.90;;;;;;5132303;27;20031;-76
2024/01/29 09:39:01;;;;;;;8.55;5.72;;;6.90;99.90;;;;;;5115436;27;20157;-76
2024/01/29 09:41:33;;;;;;;9.80;5.85;;;7.00;99.90;;;;;;5131532;27;20099;-77
2024/01/29 09:44:01;;;;;;;8.75;6.40;;;7.10;99.90;;;;;;5123797;27;20039;-75
2024/01/29 09:46:30;;;;;;;9.75;6.70;;;7.10;99.90;;;;;;5109586;27;20043;-77
2024/01/29 09:48:55;;;;;;;10.10;6.55;;;7.20;99.90;;;;;;5124867;27;20049;-76
2024/01/29 09:51:23;;;;;;;9.43;6.55;;;7.30;99.90;;;;;;5130301;27;20047;-76
2024/01/29 09:53:50;;;;;;;9.82;5.78;;;7.40;99.90;;;;;;5103420;27;20051;-77
2024/01/29 09:56:16;;;;;;;9.95;6.43;;;7.50;99.90;;;;;;5109885;27;20142;-77
2024/01/29 09:58:42;;;;;;;9.43;6.50;;;7.60;99.90;;;;;;5108568;27;20059;-78
2024/01/29 10:01:10;;;;;;;8.88;6.50;;;7.60;99.90;;;;;;5089440;28;20043;-76
2024/01/29 10:03:38;;;;;;;9.55;6.50;;;7.70;99.90;;;;;;5123811;27;20563;-77
2024/01/29 10:06:04;;;;;;;10.60;6.55;;;7.80;99.90;;;;;;5109043;28;20035;-76
2024/01/29 10:08:32;;;;;;;11.52;7.35;;;7.90;99.90;;;;;;5104933;28;20126;-76
2024/01/29 10:10:58;;;;;;;10.70;6.88;;;7.90;99.90;;;;;;5119971;27;20027;-71
2024/01/29 10:13:24;;;;;;;10.82;7.00;;;8.00;99.90;;;;;;5119647;27;20042;-71
2024/01/29 10:15:52;;;;;;;11.35;6.60;;;8.00;99.90;;;;;;5109096;28;20035;-70
2024/01/29 10:18:18;;;;;;;11.60;7.25;;;8.10;99.90;;;;;;5125297;28;20071;-71
2024/01/29 10:20:43;;;;;;;10.27;7.18;;;8.20;99.90;;;;;;5122697;27;20031;-70
2024/01/29 10:23:09;;;;;;;10.23;6.82;;;8.20;99.90;;;;;;5125282;28;20031;-71
2024/01/29 10:25:38;;;;;;;9.50;6.85;;;8.30;99.90;;;;;;5108979;27;20061;-71
2024/01/29 10:28:13;;;;;;;10.32;7.00;;;8.30;99.90;;;;;;5116192;27;20074;-70
2024/01/29 10:30:39;;;;;;;11.77;7.32;;;8.50;99.90;;;;;;5131769;27;20092;-71
2024/01/29 10:33:09;;;;;;;9.93;7.03;;;8.60;99.90;;;;;;5113769;27;20039;-71
2024/01/29 10:35:36;;;;;;;11.73;7.10;;;8.60;99.90;;;;;;5129730;27;20036;-71
2024/01/29 10:38:04;;;;;;;11.75;7.10;;;8.70;99.90;;;;;;5111234;27;20054;-71
2024/01/29 10:40:34;;;;;;;13.30;7.28;;;8.70;99.90;;;;;;5106391;27;20042;-71
2024/01/29 10:43:01;;;;;;;10.52;6.90;;;8.60;99.90;;;;;;5125162;27;20028;-71
2024/01/29 10:45:28;;;;;;;12.25;7.25;;;8.70;99.90;;;;;;5130385;27;20046;-71
2024/01/29 10:48:06;;;;;;;12.02;7.18;;;8.70;99.90;;;;;;5125342;27;20039;-71
2024/01/29 10:50:33;;;;;;;10.90;7.25;;;8.70;99.90;;;;;;5125270;27;20088;-71
2024/01/29 10:53:00;;;;;;;12.10;7.35;;;8.70;99.90;;;;;;5128456;27;20045;-71
2024/01/29 10:55:30;;;;;;;12.82;7.30;;;8.70;99.90;;;;;;5114866;27;20042;-70
2024/01/29 10:58:01;;;;;;;9.95;7.38;;;8.70;99.90;;;;;;5128529;27;20043;-71
2024/01/29 11:00:31;;;;;;;12.02;7.65;;;8.70;99.90;;;;;;5129076;27;20062;-71
2024/01/29 11:02:58;;;;;;;9.88;7.47;;;8.80;99.90;;;;;;5124854;27;20125;-71
2024/01/29 11:05:25;;;;;;;10.85;7.45;;;8.90;99.90;;;;;;5110350;27;20036;-71
2024/01/29 11:07:54;;;;;;;10.50;7.80;;;8.90;99.90;;;;;;5128435;27;20096;-71
2024/01/29 11:10:24;;;;;;;10.63;8.02;;;9.00;99.90;;;;;;5125407;27;20114;-71
2024/01/29 11:12:53;;;;;;;10.32;7.80;;;9.00;99.90;;;;;;5125439;27;20114;-71
2024/01/29 11:15:19;;;;;;;12.02;8.23;;;9.10;99.90;;;;;;5126000;27;20506;-70
2024/01/29 11:17:45;;;;;;;11.02;7.88;;;9.10;99.90;;;;;;5126788;27;20040;-71
2024/01/29 11:20:16;;;;;;;10.63;7.82;;;9.10;99.90;;;;;;5106700;27;20031;-71
2024/01/29 11:22:52;;;;;;;10.32;7.55;;;9.20;99.90;;;;;;5127590;27;20031;-71
2024/01/29 11:25:19;;;;;;;11.82;8.18;;;9.10;99.90;;;;;;5123695;27;20123;-71
2024/01/29 11:27:49;;;;;;;11.10;7.97;;;9.20;99.90;;;;;;5108623;27;20402;-71
2024/01/29 11:30:21;;;;;;;11.77;8.48;;;9.20;99.90;;;;;;5098787;27;20055;-71
2024/01/29 11:32:47;;;;;;;14.73;8.88;;;9.20;99.90;;;;;;5121725;27;20112;-70
2024/01/29 11:35:22;;;;;;;11.52;8.63;;;9.30;99.90;;;;;;5114042;27;20396;-71
2024/01/29 11:37:50;;;;;;;11.30;8.27;;;9.30;99.90;;;;;;5108867;28;20042;-71
2024/01/29 11:40:33;;;;;;;11.93;8.02;;;9.30;99.90;;;;;;5092809;28;20032;-70
2024/01/29 11:43:19;;;;;;;13.30;8.57;;;9.30;99.90;;;;;;5103999;28;20039;-71
2024/01/29 11:45:50;;;;;;;12.23;9.13;;;9.30;99.90;;;;;;5120427;27;20085;-71
2024/01/29 11:48:18;;;;;;;11.80;9.00;;;9.40;99.90;;;;;;5124018;27;20035;-72
2024/01/29 11:50:49;;;;;;;11.40;9.00;;;9.40;99.90;;;;;;5096051;28;20043;-71
2024/01/29 11:53:16;;;;;;;11.35;8.65;;;9.40;99.90;;;;;;5118427;27;20047;-70
2024/01/29 11:55:43;;;;;;;13.20;8.85;;;9.30;99.90;;;;;;5124280;27;20118;-71
2024/01/29 11:58:18;;;;;;;14.23;9.93;;;9.40;99.90;;;;;;5108798;27;20075;-70
2024/01/29 12:00:46;;;;;;;13.13;9.57;;;9.40;99.90;;;;;;5115212;27;20051;-70
2024/01/29 12:03:17;;;;;;;13.73;10.18;;;9.40;99.90;;;;;;5113802;27;20126;-70
2024/01/29 12:05:45;;;;;;;15.38;9.85;;;9.40;99.90;;;;;;5122736;27;20119;-71
2024/01/29 12:08:16;;;;;;;15.40;10.18;;;9.50;99.90;;;;;;5100635;27;20061;-70
2024/01/29 12:10:43;;;;;;;13.27;10.65;;;9.50;99.90;;;;;;5103112;28;20036;-71
2024/01/29 12:13:16;;;;;;;12.57;10.00;;;9.50;99.90;;;;;;5110742;27;20088;-71
2024/01/29 12:15:43;;;;;;;13.27;10.18;;;9.50;99.90;;;;;;5121847;27;20036;-70
2024/01/29 12:18:18;;;;;;;14.65;9.73;;;9.60;99.90;;;;;;5101793;27;20035;-71
2024/01/29 12:20:44;;;;;;;13.65;10.25;;;9.60;99.90;;;;;;5113939;27;20110;-70
2024/01/29 12:23:10;;;;;;;14.93;10.40;;;9.60;99.90;;;;;;5120507;27;20118;-71
2024/01/29 12:25:41;;;;;;;14.70;10.00;;;9.70;99.90;;;;;;5107188;28;20106;-70
2024/01/29 12:28:11;;;;;;;12.77;9.63;;;9.70;99.90;;;;;;5123540;27;20050;-71
2024/01/29 12:30:37;;;;;;;14.57;10.50;;;9.60;99.90;;;;;;5095338;28;20411;-70
2024/01/29 12:33:07;;;;;;;14.95;10.35;;;9.60;99.90;;;;;;5111265;28;20046;-70
2024/01/29 12:35:36;;;;;;;13.20;10.13;;;9.60;99.90;;;;;;5120493;27;20078;-70
2024/01/29 12:38:06;;;;;;;13.88;10.73;;;9.60;99.90;;;;;;5112769;27;20128;-70
2024/01/29 12:40:33;;;;;;;13.55;10.73;;;9.70;99.90;;;;;;5119430;27;20031;-70
2024/01/29 12:43:00;;;;;;;14.57;10.52;;;9.70;99.90;;;;;;5120922;27;20035;-71
2024/01/29 12:45:26;;;;;;;13.27;10.50;;;9.70;99.90;;;;;;5124557;27;20043;-72
2024/01/29 12:48:19;;;;;;;15.73;10.80;;;9.70;99.90;;;;;;5099160;28;20035;-72
2024/01/29 12:50:45;;;;;;;14.80;10.52;;;9.70;99.90;;;;;;5126700;27;20205;-72